sensor_id;sensor_type;location;lat;lon;timestamp;temperature;humidity
65536;DHT22;52145;49.342;9.116;2022-10-23T00:01:52;11.10;99.90
65536;DHT22;52145;49.342;9.116;2022-10-23T00:04:20;11.10;99.90
65536;DHT22;52145;49.342;9.116;2022-10-23T00:06:47;11.10;99.90
65536;DHT22;52145;49.342;9.116;2022-10-23T00:09:15;11.10;99.90
65536;DHT22;52145;49.342;9.116;2022-10-23T00:11:42;11.00;99.90
65536;DHT22;52145;49.342;9.116;2022-10-23T00:14:09;10.90;99.90
65536;DHT22;52145;49.342;9.116;2022-10-23T00:16:34;10.80;99.90
65536;DHT22;52145;49.342;9.116;2022-10-23T00:19:00;10.80;99.90
65536;DHT22;52145;49.342;9.116;2022-10-23T00:21:26;10.80;99.90
65536;DHT22;52145;49.342;9.116;2022-10-23T00:23:51;10.80;99.90
65536;DHT22;52145;49.342;9.116;2022-10-23T00:26:17;10.80;99.90
65536;DHT22;52145;49.342;9.116;2022-10-23T00:28:49;10.80;99.90
65536;DHT22;52145;49.342;9.116;2022-10-23T00:31:15;10.70;99.90
65536;DHT22;52145;49.342;9.116;2022-10-23T00:33:41;10.70;99.90
65536;DHT22;52145;49.342;9.116;2022-10-23T00:36:09;10.80;99.90
65536;DHT22;52145;49.342;9.116;2022-10-23T00:38:35;10.70;99.90
65536;DHT22;52145;49.342;9.116;2022-10-23T00:41:01;10.80;99.90
65536;DHT22;52145;49.342;9.116;2022-10-23T00:43:29;10.80;99.90
65536;DHT22;52145;49.342;9.116;2022-10-23T00:45:56;10.90;99.90
65536;DHT22;52145;49.342;9.116;2022-10-23T00:48:22;10.80;99.90
65536;DHT22;52145;49.342;9.116;2022-10-23T00:50:48;10.90;99.90
65536;DHT22;52145;49.342;9.116;2022-10-23T00:53:16;10.90;99.90
65536;DHT22;52145;49.342;9.116;2022-10-23T00:55:44;10.90;99.90
65536;DHT22;52145;49.342;9.116;2022-10-23T00:58:12;10.90;99.90
65536;DHT22;52145;49.342;9.116;2022-10-23T01:00:45;10.80;99.90
65536;DHT22;52145;49.342;9.116;2022-10-23T01:03:13;10.80;99.90
65536;DHT22;52145;49.342;9.116;2022-10-23T01:05:56;10.80;99.90
65536;DHT22;52145;49.342;9.116;2022-10-23T01:08:33;10.80;99.90
65536;DHT22;52145;49.342;9.116;2022-10-23T01:13:42;10.80;99.90
65536;DHT22;52145;49.342;9.116;2022-10-23T01:16:15;10.90;99.90
65536;DHT22;52145;49.342;9.116;2022-10-23T01:19:06;10.80;99.90
65536;DHT22;52145;49.342;9.116;2022-10-23T01:22:02;10.70;99.90
65536;DHT22;52145;49.342;9.116;2022-10-23T01:24:47;10.70;99.90
65536;DHT22;52145;49.342;9.116;2022-10-23T01:27:24;10.70;99.90
65536;DHT22;52145;49.342;9.116;2022-10-23T01:30:11;10.70;99.90
65536;DHT22;52145;49.342;9.116;2022-10-23T01:32:57;10.60;99.90
65536;DHT22;52145;49.342;9.116;2022-10-23T01:35:34;10.60;99.90
65536;DHT22;52145;49.342;9.116;2022-10-23T01:38:10;10.60;99.90
65536;DHT22;52145;49.342;9.116;2022-10-23T01:41:08;10.60;99.90
65536;DHT22;52145;49.342;9.116;2022-10-23T01:44:02;10.50;99.90
65536;DHT22;52145;49.342;9.116;2022-10-23T01:46:26;10.40;99.90
65536;DHT22;52145;49.342;9.116;2022-10-23T01:48:54;10.40;99.90
65536;DHT22;52145;49.342;9.116;2022-10-23T01:51:24;10.40;99.90
65536;DHT22;52145;49.342;9.116;2022-10-23T01:53:55;10.40;99.90
65536;DHT22;52145;49.342;9.116;2022-10-23T01:56:44;10.40;99.90
65536;DHT22;52145;49.342;9.116;2022-10-23T01:59:33;10.40;99.90
65536;DHT22;52145;49.342;9.116;2022-10-23T02:02:03;10.40;99.90
65536;DHT22;52145;49.342;9.116;2022-10-23T02:04:35;10.50;99.90
65536;DHT22;52145;49.342;9.116;2022-10-23T02:07:02;10.50;99.90
65536;DHT22;52145;49.342;9.116;2022-10-23T02:09:28;10.40;99.90
65536;DHT22;52145;49.342;9.116;2022-10-23T02:12:08;10.50;99.90
65536;DHT22;52145;49.342;9.116;2022-10-23T02:14:44;10.40;99.90
65536;DHT22;52145;49.342;9.116;2022-10-23T02:17:23;10.40;99.90
65536;DHT22;52145;49.342;9.116;2022-10-23T02:20:33;10.30;99.90
65536;DHT22;52145;49.342;9.116;2022-10-23T02:25:38;10.30;99.90
65536;DHT22;52145;49.342;9.116;2022-10-23T02:28:09;10.30;99.90
65536;DHT22;52145;49.342;9.116;2022-10-23T02:30:39;10.20;99.90
65536;DHT22;52145;49.342;9.116;2022-10-23T02:33:07;10.20;99.90
65536;DHT22;52145;49.342;9.116;2022-10-23T02:35:34;10.10;99.90
65536;DHT22;52145;49.342;9.116;2022-10-23T02:38:00;10.10;99.90
65536;DHT22;52145;49.342;9.116;2022-10-23T02:40:40;10.10;99.90
65536;DHT22;52145;49.342;9.116;2022-10-23T02:43:20;10.10;99.90
65536;DHT22;52145;49.342;9.116;2022-10-23T02:45:53;10.10;99.90
65536;DHT22;52145;49.342;9.116;2022-10-23T02:48:36;10.10;99.90
65536;DHT22;52145;49.342;9.116;2022-10-23T02:51:35;10.10;99.90
65536;DHT22;52145;49.342;9.116;2022-10-23T02:54:16;10.00;99.90
65536;DHT22;52145;49.342;9.116;2022-10-23T02:56:52;10.00;99.90
65536;DHT22;52145;49.342;9.116;2022-10-23T02:59:30;9.90;99.90
65536;DHT22;52145;49.342;9.116;2022-10-23T03:02:07;10.00;99.90
65536;DHT22;52145;49.342;9.116;2022-10-23T03:04:36;10.00;99.90
65536;DHT22;52145;49.342;9.116;2022-10-23T03:07:03;10.00;99.90
65536;DHT22;52145;49.342;9.116;2022-10-23T03:09:30;10.10;99.90
65536;DHT22;52145;49.342;9.116;2022-10-23T03:11:55;10.00;99.90
65536;DHT22;52145;49.342;9.116;2022-10-23T03:14:21;10.10;99.90
65536;DHT22;52145;49.342;9.116;2022-10-23T03:16:46;10.10;99.90
65536;DHT22;52145;49.342;9.116;2022-10-23T03:19:12;10.00;99.90
65536;DHT22;52145;49.342;9.116;2022-10-23T03:21:38;10.10;99.90
65536;DHT22;52145;49.342;9.116;2022-10-23T03:24:04;10.10;99.90
65536;DHT22;52145;49.342;9.116;2022-10-23T03:26:30;10.00;99.90
65536;DHT22;52145;49.342;9.116;2022-10-23T03:28:55;10.00;99.90
65536;DHT22;52145;49.342;9.116;2022-10-23T03:31:21;10.00;99.90
65536;DHT22;52145;49.342;9.116;2022-10-23T03:33:47;10.00;99.90
65536;DHT22;52145;49.342;9.116;2022-10-23T03:36:12;10.00;99.90
65536;DHT22;52145;49.342;9.116;2022-10-23T03:38:38;10.00;99.90
65536;DHT22;52145;49.342;9.116;2022-10-23T03:41:03;10.00;99.90
65536;DHT22;52145;49.342;9.116;2022-10-23T03:43:29;10.00;99.90
65536;DHT22;52145;49.342;9.116;2022-10-23T03:45:55;10.00;99.90
65536;DHT22;52145;49.342;9.116;2022-10-23T03:48:21;9.90;99.90
65536;DHT22;52145;49.342;9.116;2022-10-23T03:50:49;9.90;99.90
65536;DHT22;52145;49.342;9.116;2022-10-23T03:53:14;10.00;99.90
65536;DHT22;52145;49.342;9.116;2022-10-23T03:55:40;10.00;99.90
65536;DHT22;52145;49.342;9.116;2022-10-23T03:58:05;9.90;99.90
65536;DHT22;52145;49.342;9.116;2022-10-23T04:00:31;10.00;99.90
65536;DHT22;52145;49.342;9.116;2022-10-23T04:02:56;10.00;99.90
65536;DHT22;52145;49.342;9.116;2022-10-23T04:05:22;9.90;99.90
65536;DHT22;52145;49.342;9.116;2022-10-23T04:07:47;9.90;99.90
65536;DHT22;52145;49.342;9.116;2022-10-23T04:10:13;9.90;99.90
65536;DHT22;52145;49.342;9.116;2022-10-23T04:12:39;9.90;99.90
65536;DHT22;52145;49.342;9.116;2022-10-23T04:15:04;9.80;99.90
65536;DHT22;52145;49.342;9.116;2022-10-23T04:17:30;9.70;99.90
65536;DHT22;52145;49.342;9.116;2022-10-23T04:19:56;9.70;99.90
65536;DHT22;52145;49.342;9.116;2022-10-23T04:22:21;9.60;99.90
65536;DHT22;52145;49.342;9.116;2022-10-23T04:24:47;9.80;99.90
65536;DHT22;52145;49.342;9.116;2022-10-23T04:27:12;9.70;99.90
65536;DHT22;52145;49.342;9.116;2022-10-23T04:29:38;9.70;99.90
65536;DHT22;52145;49.342;9.116;2022-10-23T04:32:06;9.60;99.90
65536;DHT22;52145;49.342;9.116;2022-10-23T04:34:31;9.60;99.90
65536;DHT22;52145;49.342;9.116;2022-10-23T04:36:57;9.60;99.90
65536;DHT22;52145;49.342;9.116;2022-10-23T04:39:22;9.60;99.90
65536;DHT22;52145;49.342;9.116;2022-10-23T04:41:48;9.60;99.90
65536;DHT22;52145;49.342;9.116;2022-10-23T04:44:13;9.60;99.90
65536;DHT22;52145;49.342;9.116;2022-10-23T04:46:39;9.60;99.90
65536;DHT22;52145;49.342;9.116;2022-10-23T04:49:04;9.60;99.90
65536;DHT22;52145;49.342;9.116;2022-10-23T04:51:30;9.60;99.90
65536;DHT22;52145;49.342;9.116;2022-10-23T04:53:55;9.50;99.90
65536;DHT22;52145;49.342;9.116;2022-10-23T04:56:21;9.40;99.90
65536;DHT22;52145;49.342;9.116;2022-10-23T04:58:46;9.60;99.90
65536;DHT22;52145;49.342;9.116;2022-10-23T05:01:12;9.50;99.90
65536;DHT22;52145;49.342;9.116;2022-10-23T05:03:38;9.50;99.90
65536;DHT22;52145;49.342;9.116;2022-10-23T05:06:04;9.60;99.90
65536;DHT22;52145;49.342;9.116;2022-10-23T05:08:30;9.60;99.90
65536;DHT22;52145;49.342;9.116;2022-10-23T05:10:55;9.60;99.90
65536;DHT22;52145;49.342;9.116;2022-10-23T08:06:19;11.50;99.90
65536;DHT22;52145;49.342;9.116;2022-10-23T08:08:44;11.90;99.90
65536;DHT22;52145;49.342;9.116;2022-10-23T08:11:12;12.10;99.90
65536;DHT22;52145;49.342;9.116;2022-10-23T08:13:38;12.80;99.90
65536;DHT22;52145;49.342;9.116;2022-10-23T08:16:03;13.30;99.90
65536;DHT22;52145;49.342;9.116;2022-10-23T08:18:29;13.30;99.90
65536;DHT22;52145;49.342;9.116;2022-10-23T08:21:00;13.60;99.90
65536;DHT22;52145;49.342;9.116;2022-10-23T08:23:26;13.80;99.90
65536;DHT22;52145;49.342;9.116;2022-10-23T08:26:00;14.00;99.90
65536;DHT22;52145;49.342;9.116;2022-10-23T08:28:26;14.00;99.90
65536;DHT22;52145;49.342;9.116;2022-10-23T08:30:53;14.20;99.90
65536;DHT22;52145;49.342;9.116;2022-10-23T08:33:19;14.10;99.90
65536;DHT22;52145;49.342;9.116;2022-10-23T08:35:44;14.10;99.90
65536;DHT22;52145;49.342;9.116;2022-10-23T08:38:10;14.30;99.90
65536;DHT22;52145;49.342;9.116;2022-10-23T08:40:35;14.20;99.90
65536;DHT22;52145;49.342;9.116;2022-10-23T08:45:37;14.70;99.90
65536;DHT22;52145;49.342;9.116;2022-10-23T08:50:55;14.80;99.90
65536;DHT22;52145;49.342;9.116;2022-10-23T08:56:24;15.40;99.90
65536;DHT22;52145;49.342;9.116;2022-10-23T09:01:42;15.50;99.90
65536;DHT22;52145;49.342;9.116;2022-10-23T09:04:12;15.70;99.90
65536;DHT22;52145;49.342;9.116;2022-10-23T09:12:30;15.90;99.90
65536;DHT22;52145;49.342;9.116;2022-10-23T09:17:56;16.50;99.90
65536;DHT22;52145;49.342;9.116;2022-10-23T09:20:30;16.60;99.90
65536;DHT22;52145;49.342;9.116;2022-10-23T09:23:20;16.90;99.90
65536;DHT22;52145;49.342;9.116;2022-10-23T09:25:46;17.00;99.90
65536;DHT22;52145;49.342;9.116;2022-10-23T09:28:20;17.10;99.90
65536;DHT22;52145;49.342;9.116;2022-10-23T09:30:47;17.30;99.90
65536;DHT22;52145;49.342;9.116;2022-10-23T09:33:22;17.60;99.90
65536;DHT22;52145;49.342;9.116;2022-10-23T09:41:37;17.80;99.90
65536;DHT22;52145;49.342;9.116;2022-10-23T09:49:31;18.60;99.90
65536;DHT22;52145;49.342;9.116;2022-10-23T09:52:40;18.80;99.90
65536;DHT22;52145;49.342;9.116;2022-10-23T09:55:01;19.00;99.90
65536;DHT22;52145;49.342;9.116;2022-10-23T09:57:36;18.90;99.90
65536;DHT22;52145;49.342;9.116;2022-10-23T10:02:40;19.40;99.90
65536;DHT22;52145;49.342;9.116;2022-10-23T10:05:29;19.40;99.90
65536;DHT22;52145;49.342;9.116;2022-10-23T10:10:56;19.30;99.90
65536;DHT22;52145;49.342;9.116;2022-10-23T10:18:46;19.80;99.90
65536;DHT22;52145;49.342;9.116;2022-10-23T10:21:20;19.80;99.90
65536;DHT22;52145;49.342;9.116;2022-10-23T10:24:03;20.30;99.90
65536;DHT22;52145;49.342;9.116;2022-10-23T10:26:41;20.60;99.90
65536;DHT22;52145;49.342;9.116;2022-10-23T10:29:41;20.70;99.90
65536;DHT22;52145;49.342;9.116;2022-10-23T10:40:35;20.70;99.90
65536;DHT22;52145;49.342;9.116;2022-10-23T10:43:23;20.80;99.90
65536;DHT22;52145;49.342;9.116;2022-10-23T10:46:13;21.30;99.90
65536;DHT22;52145;49.342;9.116;2022-10-23T10:48:56;21.30;99.80
65536;DHT22;52145;49.342;9.116;2022-10-23T10:51:27;21.40;99.70
65536;DHT22;52145;49.342;9.116;2022-10-23T10:56:35;20.50;99.90
65536;DHT22;52145;49.342;9.116;2022-10-23T10:59:11;20.80;99.90
65536;DHT22;52145;49.342;9.116;2022-10-23T11:01:44;21.80;99.30
65536;DHT22;52145;49.342;9.116;2022-10-23T11:04:32;21.40;99.20
65536;DHT22;52145;49.342;9.116;2022-10-23T11:07:04;22.00;99.20
65536;DHT22;52145;49.342;9.116;2022-10-23T11:09:31;22.70;98.40
65536;DHT22;52145;49.342;9.116;2022-10-23T11:11:56;23.10;97.70
65536;DHT22;52145;49.342;9.116;2022-10-23T11:14:25;23.00;96.90
65536;DHT22;52145;49.342;9.116;2022-10-23T11:16:58;23.30;95.20
65536;DHT22;52145;49.342;9.116;2022-10-23T11:19:29;23.00;95.40
65536;DHT22;52145;49.342;9.116;2022-10-23T11:22:05;22.00;97.50
65536;DHT22;52145;49.342;9.116;2022-10-23T11:32:56;24.10;93.60
65536;DHT22;52145;49.342;9.116;2022-10-23T11:40:46;24.00;94.10
65536;DHT22;52145;49.342;9.116;2022-10-23T11:43:24;24.00;93.80
65536;DHT22;52145;49.342;9.116;2022-10-23T11:45:50;22.60;95.30
65536;DHT22;52145;49.342;9.116;2022-10-23T11:48:37;22.00;96.80
65536;DHT22;52145;49.342;9.116;2022-10-23T11:51:04;21.80;97.00
65536;DHT22;52145;49.342;9.116;2022-10-23T11:56:22;21.60;97.90
65536;DHT22;52145;49.342;9.116;2022-10-23T11:58:56;21.50;98.30
65536;DHT22;52145;49.342;9.116;2022-10-23T12:01:40;21.60;97.60
65536;DHT22;52145;49.342;9.116;2022-10-23T12:06:47;21.90;97.00
65536;DHT22;52145;49.342;9.116;2022-10-23T12:09:30;21.80;97.80
65536;DHT22;52145;49.342;9.116;2022-10-23T12:14:36;22.00;97.20
65536;DHT22;52145;49.342;9.116;2022-10-23T12:17:14;22.50;96.60
65536;DHT22;52145;49.342;9.116;2022-10-23T12:19:48;22.50;96.50
65536;DHT22;52145;49.342;9.116;2022-10-23T12:22:14;22.70;97.40
65536;DHT22;52145;49.342;9.116;2022-10-23T12:25:04;23.30;96.00
65536;DHT22;52145;49.342;9.116;2022-10-23T12:30:17;24.10;94.50
65536;DHT22;52145;49.342;9.116;2022-10-23T12:33:13;23.50;95.00
65536;DHT22;52145;49.342;9.116;2022-10-23T12:35:51;22.60;95.80
65536;DHT22;52145;49.342;9.116;2022-10-23T12:38:23;21.80;97.10
65536;DHT22;52145;49.342;9.116;2022-10-23T12:40:55;22.20;97.20
65536;DHT22;52145;49.342;9.116;2022-10-23T12:43:30;22.40;96.70
65536;DHT22;52145;49.342;9.116;2022-10-23T12:46:17;22.70;96.20
65536;DHT22;52145;49.342;9.116;2022-10-23T12:48:51;22.30;96.30
65536;DHT22;52145;49.342;9.116;2022-10-23T12:51:29;23.00;95.50
65536;DHT22;52145;49.342;9.116;2022-10-23T12:53:55;23.80;94.30
65536;DHT22;52145;49.342;9.116;2022-10-23T12:56:21;25.00;93.90
65536;DHT22;52145;49.342;9.116;2022-10-23T12:58:53;25.70;91.90
65536;DHT22;52145;49.342;9.116;2022-10-23T13:01:30;26.30;91.10
65536;DHT22;52145;49.342;9.116;2022-10-23T13:06:51;25.00;92.00
65536;DHT22;52145;49.342;9.116;2022-10-23T13:11:57;24.90;92.20
65536;DHT22;52145;49.342;9.116;2022-10-23T13:17:04;24.70;92.80
65536;DHT22;52145;49.342;9.116;2022-10-23T13:19:31;24.10;93.60
65536;DHT22;52145;49.342;9.116;2022-10-23T13:21:57;24.90;92.30
65536;DHT22;52145;49.342;9.116;2022-10-23T13:24:26;26.50;90.90
65536;DHT22;52145;49.342;9.116;2022-10-23T13:26:52;27.70;88.30
65536;DHT22;52145;49.342;9.116;2022-10-23T13:29:26;27.30;88.30
65536;DHT22;52145;49.342;9.116;2022-10-23T13:31:52;27.90;86.60
65536;DHT22;52145;49.342;9.116;2022-10-23T13:34:25;27.70;86.40
65536;DHT22;52145;49.342;9.116;2022-10-23T13:39:37;25.50;89.70
65536;DHT22;52145;49.342;9.116;2022-10-23T13:42:13;25.50;90.40
65536;DHT22;52145;49.342;9.116;2022-10-23T13:44:40;25.60;90.50
65536;DHT22;52145;49.342;9.116;2022-10-23T13:47:11;26.30;89.40
65536;DHT22;52145;49.342;9.116;2022-10-23T13:49:37;27.00;87.10
65536;DHT22;52145;49.342;9.116;2022-10-23T13:52:02;26.60;88.80
65536;DHT22;52145;49.342;9.116;2022-10-23T13:54:29;25.90;89.70
65536;DHT22;52145;49.342;9.116;2022-10-23T13:56:55;24.20;92.00
65536;DHT22;52145;49.342;9.116;2022-10-23T13:59:22;23.70;93.20
65536;DHT22;52145;49.342;9.116;2022-10-23T14:01:48;23.90;92.60
65536;DHT22;52145;49.342;9.116;2022-10-23T14:04:16;24.20;93.20
65536;DHT22;52145;49.342;9.116;2022-10-23T14:06:42;24.10;94.10
65536;DHT22;52145;49.342;9.116;2022-10-23T14:09:14;23.80;94.40
65536;DHT22;52145;49.342;9.116;2022-10-23T14:11:40;23.90;94.00
65536;DHT22;52145;49.342;9.116;2022-10-23T14:14:06;24.30;92.20
65536;DHT22;52145;49.342;9.116;2022-10-23T14:16:32;23.70;93.40
65536;DHT22;52145;49.342;9.116;2022-10-23T14:18:58;23.10;95.20
65536;DHT22;52145;49.342;9.116;2022-10-23T14:21:23;22.60;96.70
65536;DHT22;52145;49.342;9.116;2022-10-23T14:23:51;22.40;97.60
65536;DHT22;52145;49.342;9.116;2022-10-23T14:26:25;22.50;95.70
65536;DHT22;52145;49.342;9.116;2022-10-23T14:28:55;22.00;96.10
65536;DHT22;52145;49.342;9.116;2022-10-23T14:31:21;22.10;97.00
65536;DHT22;52145;49.342;9.116;2022-10-23T14:33:54;22.20;98.10
65536;DHT22;52145;49.342;9.116;2022-10-23T14:36:21;21.90;98.90
65536;DHT22;52145;49.342;9.116;2022-10-23T14:38:46;21.40;99.90
65536;DHT22;52145;49.342;9.116;2022-10-23T14:41:13;21.00;99.90
65536;DHT22;52145;49.342;9.116;2022-10-23T14:43:39;20.80;99.90
65536;DHT22;52145;49.342;9.116;2022-10-23T14:46:15;20.80;99.90
65536;DHT22;52145;49.342;9.116;2022-10-23T14:48:41;20.70;99.90
65536;DHT22;52145;49.342;9.116;2022-10-23T14:51:24;20.60;99.90
65536;DHT22;52145;49.342;9.116;2022-10-23T14:53:58;20.40;99.90
65536;DHT22;52145;49.342;9.116;2022-10-23T14:56:26;20.30;99.90
65536;DHT22;52145;49.342;9.116;2022-10-23T14:58:52;20.20;99.90
65536;DHT22;52145;49.342;9.116;2022-10-23T15:01:18;20.10;99.90
65536;DHT22;52145;49.342;9.116;2022-10-23T15:03:43;20.00;99.90
65536;DHT22;52145;49.342;9.116;2022-10-23T15:06:09;20.00;99.90
65536;DHT22;52145;49.342;9.116;2022-10-23T15:08:35;19.90;99.90
65536;DHT22;52145;49.342;9.116;2022-10-23T15:11:02;19.90;99.90
65536;DHT22;52145;49.342;9.116;2022-10-23T15:13:28;19.70;99.90
65536;DHT22;52145;49.342;9.116;2022-10-23T15:16:05;19.60;99.90
65536;DHT22;52145;49.342;9.116;2022-10-23T15:18:32;19.60;99.90
65536;DHT22;52145;49.342;9.116;2022-10-23T15:20:58;19.40;99.90
65536;DHT22;52145;49.342;9.116;2022-10-23T15:23:24;19.50;99.90
65536;DHT22;52145;49.342;9.116;2022-10-23T15:25:57;19.60;99.90
65536;DHT22;52145;49.342;9.116;2022-10-23T15:28:23;19.40;99.90
65536;DHT22;52145;49.342;9.116;2022-10-23T15:30:49;19.10;99.90
65536;DHT22;52145;49.342;9.116;2022-10-23T15:33:14;19.10;99.90
65536;DHT22;52145;49.342;9.116;2022-10-23T15:35:40;19.00;99.90
65536;DHT22;52145;49.342;9.116;2022-10-23T15:38:05;19.00;99.90
65536;DHT22;52145;49.342;9.116;2022-10-23T15:40:31;18.90;99.90
65536;DHT22;52145;49.342;9.116;2022-10-23T15:42:56;18.80;99.90
65536;DHT22;52145;49.342;9.116;2022-10-23T15:45:22;18.80;99.90
65536;DHT22;52145;49.342;9.116;2022-10-23T15:47:47;18.90;99.90
65536;DHT22;52145;49.342;9.116;2022-10-23T15:50:15;18.80;99.90
65536;DHT22;52145;49.342;9.116;2022-10-23T15:52:40;18.90;99.90
65536;DHT22;52145;49.342;9.116;2022-10-23T15:55:06;18.80;99.90
65536;DHT22;52145;49.342;9.116;2022-10-23T15:57:36;18.80;99.90
65536;DHT22;52145;49.342;9.116;2022-10-23T16:00:03;18.80;99.90
65536;DHT22;52145;49.342;9.116;2022-10-23T16:02:29;18.60;99.90
65536;DHT22;52145;49.342;9.116;2022-10-23T16:04:55;18.60;99.90
65536;DHT22;52145;49.342;9.116;2022-10-23T16:07:20;18.60;99.90
65536;DHT22;52145;49.342;9.116;2022-10-23T16:09:46;18.50;99.90
65536;DHT22;52145;49.342;9.116;2022-10-23T16:12:12;18.30;99.90
65536;DHT22;52145;49.342;9.116;2022-10-23T16:14:38;18.10;99.90
65536;DHT22;52145;49.342;9.116;2022-10-23T16:17:04;17.90;99.90
65536;DHT22;52145;49.342;9.116;2022-10-23T16:19:29;17.70;99.90
65536;DHT22;52145;49.342;9.116;2022-10-23T16:21:55;17.60;99.90
65536;DHT22;52145;49.342;9.116;2022-10-23T16:24:20;17.70;99.90
65536;DHT22;52145;49.342;9.116;2022-10-23T16:26:46;17.70;99.90
65536;DHT22;52145;49.342;9.116;2022-10-23T16:29:17;17.70;99.90
65536;DHT22;52145;49.342;9.116;2022-10-23T16:31:43;17.70;99.90
65536;DHT22;52145;49.342;9.116;2022-10-23T16:34:10;17.70;99.90
65536;DHT22;52145;49.342;9.116;2022-10-23T16:36:36;17.40;99.90
65536;DHT22;52145;49.342;9.116;2022-10-23T16:39:04;17.30;99.90
65536;DHT22;52145;49.342;9.116;2022-10-23T16:41:30;17.20;99.90
65536;DHT22;52145;49.342;9.116;2022-10-23T16:43:56;17.20;99.90
65536;DHT22;52145;49.342;9.116;2022-10-23T16:46:21;17.20;99.90
65536;DHT22;52145;49.342;9.116;2022-10-23T16:48:49;17.20;99.90
65536;DHT22;52145;49.342;9.116;2022-10-23T16:51:18;17.20;99.90
65536;DHT22;52145;49.342;9.116;2022-10-23T16:53:44;17.10;99.90
65536;DHT22;52145;49.342;9.116;2022-10-23T16:56:12;17.10;99.90
65536;DHT22;52145;49.342;9.116;2022-10-23T16:58:38;17.00;99.90
65536;DHT22;52145;49.342;9.116;2022-10-23T17:01:09;17.00;99.90
65536;DHT22;52145;49.342;9.116;2022-10-23T17:03:38;17.00;99.90
65536;DHT22;52145;49.342;9.116;2022-10-23T17:06:06;17.00;99.90
65536;DHT22;52145;49.342;9.116;2022-10-23T17:08:32;16.90;99.90
65536;DHT22;52145;49.342;9.116;2022-10-23T17:11:10;16.90;99.90
65536;DHT22;52145;49.342;9.116;2022-10-23T17:13:38;16.80;99.90
65536;DHT22;52145;49.342;9.116;2022-10-23T17:16:13;16.80;99.90
65536;DHT22;52145;49.342;9.116;2022-10-23T17:18:41;16.80;99.90
65536;DHT22;52145;49.342;9.116;2022-10-23T17:21:07;16.80;99.90
65536;DHT22;52145;49.342;9.116;2022-10-23T17:23:33;16.70;99.90
65536;DHT22;52145;49.342;9.116;2022-10-23T17:25:59;16.70;99.90
65536;DHT22;52145;49.342;9.116;2022-10-23T17:28:25;16.70;99.90
65536;DHT22;52145;49.342;9.116;2022-10-23T17:30:52;16.80;99.90
65536;DHT22;52145;49.342;9.116;2022-10-23T17:33:18;16.80;99.90
65536;DHT22;52145;49.342;9.116;2022-10-23T17:35:44;16.90;99.90
65536;DHT22;52145;49.342;9.116;2022-10-23T17:38:12;16.80;99.90
65536;DHT22;52145;49.342;9.116;2022-10-23T17:40:45;16.70;99.90
65536;DHT22;52145;49.342;9.116;2022-10-23T17:43:13;16.70;99.90
65536;DHT22;52145;49.342;9.116;2022-10-23T17:45:39;16.70;99.90
65536;DHT22;52145;49.342;9.116;2022-10-23T17:48:07;16.70;99.90
65536;DHT22;52145;49.342;9.116;2022-10-23T17:50:32;16.70;99.90
65536;DHT22;52145;49.342;9.116;2022-10-23T17:52:58;16.80;99.90
65536;DHT22;52145;49.342;9.116;2022-10-23T17:55:23;16.80;99.90
65536;DHT22;52145;49.342;9.116;2022-10-23T17:57:49;16.70;99.90
65536;DHT22;52145;49.342;9.116;2022-10-23T18:00:15;16.70;99.90
65536;DHT22;52145;49.342;9.116;2022-10-23T18:02:40;16.60;99.90
65536;DHT22;52145;49.342;9.116;2022-10-23T18:05:06;16.60;99.90
65536;DHT22;52145;49.342;9.116;2022-10-23T18:07:32;16.60;99.90
65536;DHT22;52145;49.342;9.116;2022-10-23T18:09:57;16.60;99.90
65536;DHT22;52145;49.342;9.116;2022-10-23T18:12:23;16.50;99.90
65536;DHT22;52145;49.342;9.116;2022-10-23T18:14:49;16.50;99.90
65536;DHT22;52145;49.342;9.116;2022-10-23T18:17:14;16.50;99.90
65536;DHT22;52145;49.342;9.116;2022-10-23T18:19:40;16.40;99.90
65536;DHT22;52145;49.342;9.116;2022-10-23T18:22:05;16.50;99.90
65536;DHT22;52145;49.342;9.116;2022-10-23T18:24:31;17.20;99.90
65536;DHT22;52145;49.342;9.116;2022-10-23T18:26:57;18.40;99.90
65536;DHT22;52145;49.342;9.116;2022-10-23T18:29:22;18.90;99.90
65536;DHT22;52145;49.342;9.116;2022-10-23T18:31:48;19.10;99.90
65536;DHT22;52145;49.342;9.116;2022-10-23T18:34:17;18.80;99.90
65536;DHT22;52145;49.342;9.116;2022-10-23T18:36:43;18.50;99.90
65536;DHT22;52145;49.342;9.116;2022-10-23T18:39:12;18.50;99.90
65536;DHT22;52145;49.342;9.116;2022-10-23T18:41:40;18.30;99.90
65536;DHT22;52145;49.342;9.116;2022-10-23T18:44:06;18.20;99.90
65536;DHT22;52145;49.342;9.116;2022-10-23T18:46:33;18.10;99.90
65536;DHT22;52145;49.342;9.116;2022-10-23T18:48:58;18.20;99.90
65536;DHT22;52145;49.342;9.116;2022-10-23T18:51:30;18.20;99.90
65536;DHT22;52145;49.342;9.116;2022-10-23T18:53:55;18.10;99.90
65536;DHT22;52145;49.342;9.116;2022-10-23T18:56:22;17.90;99.90
65536;DHT22;52145;49.342;9.116;2022-10-23T18:58:52;17.80;99.90
65536;DHT22;52145;49.342;9.116;2022-10-23T19:01:18;17.80;99.90
65536;DHT22;52145;49.342;9.116;2022-10-23T19:03:45;17.70;99.90
65536;DHT22;52145;49.342;9.116;2022-10-23T19:06:11;17.60;99.90
65536;DHT22;52145;49.342;9.116;2022-10-23T19:08:38;17.60;99.90
65536;DHT22;52145;49.342;9.116;2022-10-23T19:11:04;17.60;99.90
65536;DHT22;52145;49.342;9.116;2022-10-23T19:13:31;17.50;99.90
65536;DHT22;52145;49.342;9.116;2022-10-23T19:18:49;17.30;99.90
65536;DHT22;52145;49.342;9.116;2022-10-23T19:21:19;17.20;99.90
65536;DHT22;52145;49.342;9.116;2022-10-23T19:23:47;17.20;99.90
65536;DHT22;52145;49.342;9.116;2022-10-23T19:26:13;17.20;99.90
65536;DHT22;52145;49.342;9.116;2022-10-23T19:28:41;17.30;99.90
65536;DHT22;52145;49.342;9.116;2022-10-23T19:31:08;17.30;99.90
65536;DHT22;52145;49.342;9.116;2022-10-23T19:33:35;17.40;99.90
65536;DHT22;52145;49.342;9.116;2022-10-23T19:36:04;17.20;99.90
65536;DHT22;52145;49.342;9.116;2022-10-23T19:38:30;17.10;99.90
65536;DHT22;52145;49.342;9.116;2022-10-23T19:40:56;17.00;99.90
65536;DHT22;52145;49.342;9.116;2022-10-23T19:43:21;16.90;99.90
65536;DHT22;52145;49.342;9.116;2022-10-23T19:45:47;16.80;99.90
65536;DHT22;52145;49.342;9.116;2022-10-23T19:48:12;16.60;99.90
65536;DHT22;52145;49.342;9.116;2022-10-23T19:50:41;16.60;99.90
65536;DHT22;52145;49.342;9.116;2022-10-23T19:53:07;16.70;99.90
65536;DHT22;52145;49.342;9.116;2022-10-23T19:55:33;16.60;99.90
65536;DHT22;52145;49.342;9.116;2022-10-23T19:57:58;16.60;99.90
65536;DHT22;52145;49.342;9.116;2022-10-23T20:00:24;16.50;99.90
65536;DHT22;52145;49.342;9.116;2022-10-23T20:02:49;16.50;99.90
65536;DHT22;52145;49.342;9.116;2022-10-23T20:05:15;16.40;99.90
65536;DHT22;52145;49.342;9.116;2022-10-23T20:07:41;16.40;99.90
65536;DHT22;52145;49.342;9.116;2022-10-23T20:10:07;16.40;99.90
65536;DHT22;52145;49.342;9.116;2022-10-23T20:12:34;16.20;99.90
65536;DHT22;52145;49.342;9.116;2022-10-23T20:14:59;16.10;99.90
65536;DHT22;52145;49.342;9.116;2022-10-23T20:17:25;16.10;99.90